Time;durP1;ratioP1;P1;durP2;ratioP2;P2;SDS_P1;SDS_P2;PMS_P1;PMS_P2;Temp;Humidity;BMP_temperature;BMP_pressure;BME280_temperature;BME280_humidity;BME280_pressure;Samples;Min_cycle;Max_cycle;Signal;HPM_P1;HPM_P2
2021/04/23 00:00:52;;;;;;;3.55;0.98;;;3.40;99.90;;;;;;5030898;28;20037;-74
2021/04/23 00:03:43;;;;;;;2.15;0.90;;;3.30;99.90;;;;;;5017005;28;20035;-75
2021/04/23 00:06:25;;;;;;;3.97;1.25;;;3.30;99.90;;;;;;5047544;28;20051;-74
2021/04/23 00:09:01;;;;;;;3.63;1.40;;;3.30;99.90;;;;;;5035144;28;20032;-75
2021/04/23 00:11:35;;;;;;;4.35;1.15;;;3.30;99.90;;;;;;5052346;28;21456;-75
2021/04/23 00:14:01;;;;;;;2.10;1.27;;;3.30;99.90;;;;;;5051684;28;20021;-74
2021/04/23 00:16:27;;;;;;;4.27;1.27;;;3.30;99.90;;;;;;5033713;28;20028;-74
2021/04/23 00:18:53;;;;;;;6.78;1.60;;;3.30;99.90;;;;;;5050651;28;20600;-75
2021/04/23 00:21:21;;;;;;;1.90;1.08;;;3.30;99.90;;;;;;5050438;28;20028;-74
2021/04/23 00:23:48;;;;;;;5.78;1.15;;;3.30;99.90;;;;;;5033174;28;20454;-74
2021/04/23 00:26:14;;;;;;;4.50;1.75;;;3.30;99.90;;;;;;5052067;28;20032;-74
2021/04/23 00:28:39;;;;;;;1.25;1.08;;;3.30;99.90;;;;;;5051467;28;20036;-74
2021/04/23 00:31:07;;;;;;;5.10;0.90;;;3.30;99.90;;;;;;5050294;28;20086;-77
2021/04/23 00:33:34;;;;;;;3.67;1.25;;;3.20;99.90;;;;;;5051942;28;20052;-75
2021/04/23 00:36:00;;;;;;;1.50;0.93;;;3.10;99.90;;;;;;5049831;28;20036;-75
2021/04/23 00:38:27;;;;;;;2.75;1.50;;;3.00;99.90;;;;;;5033713;28;20086;-78
2021/04/23 00:41:09;;;;;;;1.55;1.08;;;3.00;99.90;;;;;;5050264;28;20516;-78
2021/04/23 00:43:38;;;;;;;2.30;0.90;;;3.00;99.90;;;;;;5049687;28;20056;-75
2021/04/23 00:46:05;;;;;;;2.65;0.98;;;3.00;99.90;;;;;;5034385;28;20108;-74
2021/04/23 00:48:32;;;;;;;;;;;2.90;99.90;;;;;;5035478;28;20028;-77
2021/04/23 00:51:09;;;;;;;4.28;1.13;;;3.00;99.90;;;;;;5051295;28;19909;-75
2021/04/23 00:53:37;;;;;;;4.97;1.20;;;3.00;99.90;;;;;;5047890;28;20036;-74
2021/04/23 00:56:06;;;;;;;1.65;1.35;;;2.90;99.90;;;;;;5031862;28;20460;-74
2021/04/23 00:58:33;;;;;;;4.80;0.98;;;2.90;99.90;;;;;;5051756;28;20314;-75
2021/04/23 01:01:11;;;;;;;2.00;1.27;;;2.80;99.90;;;;;;5053934;28;20443;-75
2021/04/23 01:03:37;;;;;;;3.45;1.70;;;2.80;99.90;;;;;;5031594;28;20095;-75
2021/04/23 01:06:19;;;;;;;3.13;1.87;;;2.70;99.90;;;;;;5037063;28;20059;-75
2021/04/23 01:08:46;;;;;;;5.82;1.17;;;2.70;99.90;;;;;;5032820;28;20033;-75
2021/04/23 01:11:13;;;;;;;2.10;1.15;;;2.80;99.90;;;;;;5036598;28;20078;-75
2021/04/23 01:13:40;;;;;;;2.67;1.08;;;2.90;99.90;;;;;;5034404;28;20419;-75
2021/04/23 01:16:12;;;;;;;4.45;1.17;;;2.90;99.90;;;;;;5050852;28;20032;-76
2021/04/23 01:18:39;;;;;;;1.45;0.95;;;2.90;99.90;;;;;;5049962;28;20024;-75
2021/04/23 01:21:10;;;;;;;5.85;2.08;;;2.90;99.90;;;;;;5033462;28;20028;-75
2021/04/23 01:23:38;;;;;;;2.05;1.27;;;2.80;99.90;;;;;;5048762;28;20044;-75
2021/04/23 01:26:06;;;;;;;4.97;1.08;;;2.80;99.90;;;;;;5052059;28;20143;-75
2021/04/23 01:28:33;;;;;;;2.63;1.40;;;2.80;99.90;;;;;;5049926;28;20078;-75
2021/04/23 01:31:00;;;;;;;;;;;2.80;99.90;;;;;;5054005;28;20029;-76
2021/04/23 01:33:26;;;;;;;3.42;1.58;;;2.80;99.90;;;;;;5053189;28;19909;-76
2021/04/23 01:35:52;;;;;;;5.75;1.30;;;2.90;99.90;;;;;;5031511;28;20036;-75
2021/04/23 01:38:19;;;;;;;6.97;1.70;;;2.90;99.90;;;;;;5051220;28;20032;-75
2021/04/23 01:40:46;;;;;;;11.32;1.42;;;3.00;99.90;;;;;;5047536;28;20411;-75
2021/04/23 01:43:15;;;;;;;7.40;2.95;;;3.00;99.90;;;;;;5051042;28;20376;-75
2021/04/23 01:45:41;;;;;;;2.15;0.93;;;3.00;99.90;;;;;;5033877;28;20132;-74
2021/04/23 01:48:08;;;;;;;5.43;1.27;;;3.00;99.90;;;;;;5031462;28;21569;-74
2021/04/23 01:50:34;;;;;;;5.32;1.20;;;3.00;99.90;;;;;;5022820;28;20025;-75
2021/04/23 01:53:00;;;;;;;1.90;0.75;;;3.00;99.90;;;;;;5034067;28;20316;-74
2021/04/23 01:55:27;;;;;;;1.57;1.27;;;3.00;99.90;;;;;;5053628;28;20017;-74
2021/04/23 01:57:54;;;;;;;5.43;1.98;;;3.00;99.90;;;;;;5050263;28;20254;-75
2021/04/23 02:00:24;;;;;;;3.20;1.00;;;3.00;99.90;;;;;;5049127;28;20033;-74
2021/04/23 02:02:52;;;;;;;6.78;1.85;;;3.00;99.90;;;;;;5048754;28;20116;-74
2021/04/23 02:05:19;;;;;;;1.50;1.02;;;3.00;99.90;;;;;;5049433;28;20024;-77
2021/04/23 02:07:45;;;;;;;;;;;3.00;99.90;;;;;;5053975;28;20036;-77
2021/04/23 02:10:20;;;;;;;2.28;1.23;;;3.00;99.90;;;;;;5029615;28;20262;-76
2021/04/23 02:12:46;;;;;;;1.27;1.10;;;3.00;99.90;;;;;;5048316;28;20025;-75
2021/04/23 02:15:14;;;;;;;1.73;0.95;;;3.00;99.90;;;;;;5051777;28;20017;-74
2021/04/23 02:17:41;;;;;;;4.90;1.80;;;3.00;99.90;;;;;;5035801;28;20032;-75
2021/04/23 02:20:12;;;;;;;3.05;1.70;;;2.90;99.90;;;;;;5046292;28;20029;-75
2021/04/23 02:22:38;;;;;;;2.10;1.42;;;2.90;99.90;;;;;;5050404;28;20020;-75
2021/04/23 02:25:05;;;;;;;2.08;1.10;;;2.90;99.90;;;;;;5047842;28;20025;-74
2021/04/23 02:27:31;;;;;;;;;;;2.90;99.90;;;;;;5050333;28;20116;-74
2021/04/23 02:29:56;;;;;;;6.53;1.40;;;2.90;99.90;;;;;;5053311;28;20309;-77
2021/04/23 02:32:22;;;;;;;3.90;1.27;;;2.80;99.90;;;;;;5050366;28;20032;-75
2021/04/23 02:34:48;;;;;;;2.43;1.07;;;2.80;99.90;;;;;;5045808;28;20029;-75
2021/04/23 02:37:14;;;;;;;2.17;1.10;;;2.80;99.90;;;;;;5050818;28;20033;-78
2021/04/23 02:39:40;;;;;;;1.73;0.90;;;2.80;99.90;;;;;;5045053;28;20432;-74
2021/04/23 02:42:06;;;;;;;12.02;1.13;;;2.80;99.90;;;;;;5052134;28;20162;-78
2021/04/23 02:44:32;;;;;;;4.43;1.42;;;2.70;99.90;;;;;;5050425;28;20035;-75
2021/04/23 02:46:58;;;;;;;1.57;1.00;;;2.70;99.90;;;;;;5053094;28;20024;-74
2021/04/23 02:49:24;;;;;;;1.77;1.00;;;2.70;99.90;;;;;;5035798;28;20021;-74
2021/04/23 02:51:50;;;;;;;3.47;1.30;;;2.70;99.90;;;;;;5051359;28;20032;-75
2021/04/23 02:54:18;;;;;;;4.50;1.23;;;2.70;99.90;;;;;;5025409;28;20021;-76
2021/04/23 02:56:44;;;;;;;1.10;1.02;;;2.70;99.90;;;;;;5030887;28;20017;-75
2021/04/23 02:59:10;;;;;;;0.40;0.40;;;2.70;99.90;;;;;;5049713;28;20018;-75
2021/04/23 03:01:43;;;;;;;3.50;1.30;;;2.60;99.90;;;;;;5019362;28;20108;-75
2021/04/23 03:04:08;;;;;;;2.97;1.75;;;2.70;99.90;;;;;;5048051;28;20067;-74
2021/04/23 03:06:34;;;;;;;4.90;2.00;;;2.70;99.90;;;;;;5050233;28;20049;-75
2021/04/23 03:09:00;;;;;;;1.93;1.00;;;2.70;99.90;;;;;;5048583;28;20096;-75
2021/04/23 03:11:26;;;;;;;8.20;1.17;;;2.60;99.90;;;;;;5047030;28;20626;-75
2021/04/23 03:13:58;;;;;;;1.67;1.30;;;2.60;99.90;;;;;;5052412;28;20031;-75
2021/04/23 03:16:25;;;;;;;2.83;1.05;;;2.60;99.90;;;;;;5020544;28;20017;-74
2021/04/23 03:18:52;;;;;;;1.67;0.90;;;2.60;99.90;;;;;;5031916;28;20059;-75
2021/04/23 03:21:21;;;;;;;4.10;1.40;;;2.60;99.90;;;;;;5050329;28;20055;-75
2021/04/23 03:23:47;;;;;;;4.63;0.70;;;2.70;99.90;;;;;;5032442;28;20029;-74
2021/04/23 03:26:14;;;;;;;16.80;1.67;;;2.70;99.90;;;;;;5049453;28;20446;-75
2021/04/23 03:28:42;;;;;;;1.00;0.70;;;2.80;99.90;;;;;;5032817;28;20424;-75
2021/04/23 03:31:09;;;;;;;3.40;1.08;;;2.80;99.90;;;;;;5049920;28;20428;-77
2021/04/23 03:33:35;;;;;;;2.00;1.38;;;2.70;99.90;;;;;;5032102;28;20091;-75
2021/04/23 03:36:04;;;;;;;4.63;1.55;;;2.70;99.90;;;;;;5051606;28;20438;-75
2021/04/23 03:38:32;;;;;;;2.95;1.38;;;2.80;99.90;;;;;;5050080;28;20031;-74
2021/04/23 03:41:00;;;;;;;4.65;1.40;;;2.70;99.90;;;;;;5032873;28;20073;-75
2021/04/23 03:43:25;;;;;;;4.35;1.42;;;2.70;99.90;;;;;;5053855;28;20029;-75
2021/04/23 03:45:53;;;;;;;4.03;1.37;;;2.70;99.90;;;;;;5053862;28;20492;-75
2021/04/23 03:48:19;;;;;;;3.13;1.50;;;2.60;99.90;;;;;;5037356;28;20464;-74
2021/04/23 03:50:46;;;;;;;4.53;1.08;;;2.60;99.90;;;;;;5053759;28;20025;-75
2021/04/23 03:53:13;;;;;;;1.90;1.35;;;2.50;99.90;;;;;;5055613;28;20366;-76
2021/04/23 03:55:43;;;;;;;4.85;1.08;;;2.40;99.90;;;;;;5052732;28;20029;-74
2021/04/23 03:58:10;;;;;;;2.45;1.13;;;2.50;99.90;;;;;;5034224;28;20033;-75
2021/04/23 04:00:36;;;;;;;0.85;0.77;;;2.50;99.90;;;;;;5052559;28;20078;-76
2021/04/23 04:03:03;;;;;;;1.47;0.70;;;2.50;99.90;;;;;;5054185;28;20111;-75
2021/04/23 04:05:29;;;;;;;;;;;2.50;99.90;;;;;;5054255;28;20052;-75
2021/04/23 04:07:54;;;;;;;6.93;1.97;;;2.50;99.90;;;;;;5053842;28;19963;-75
2021/04/23 04:10:20;;;;;;;10.00;1.30;;;2.60;99.90;;;;;;5036991;28;20074;-75
2021/04/23 04:12:47;;;;;;;2.20;0.70;;;2.60;99.90;;;;;;5052791;28;20051;-77
2021/04/23 04:15:13;;;;;;;2.42;1.23;;;2.70;99.90;;;;;;5049530;28;20035;-77
2021/04/23 04:17:39;;;;;;;1.48;0.93;;;2.70;99.90;;;;;;5052403;28;20100;-75
2021/04/23 04:20:07;;;;;;;2.53;1.50;;;2.70;99.90;;;;;;5033395;28;20339;-74
2021/04/23 04:22:34;;;;;;;1.70;0.85;;;2.70;99.90;;;;;;5050954;28;20483;-74
2021/04/23 04:24:59;;;;;;;1.45;0.85;;;2.70;99.90;;;;;;5034350;28;20458;-75
2021/04/23 04:27:25;;;;;;;1.63;1.40;;;2.80;99.90;;;;;;5051952;28;20037;-78
2021/04/23 04:29:51;;;;;;;4.43;0.80;;;2.80;99.90;;;;;;5052947;28;20305;-75
2021/04/23 04:32:17;;;;;;;0.50;0.50;;;2.90;99.90;;;;;;5055123;28;20106;-78
2021/04/23 04:34:44;;;;;;;8.05;1.15;;;2.80;99.90;;;;;;5035478;28;20678;-78
2021/04/23 04:37:10;;;;;;;3.75;1.80;;;2.90;99.90;;;;;;5048819;28;20115;-78
2021/04/23 04:39:35;;;;;;;1.70;1.20;;;3.00;99.90;;;;;;5053093;28;20123;-75
2021/04/23 04:42:01;;;;;;;1.65;0.90;;;3.00;99.90;;;;;;5032850;28;20606;-77
2021/04/23 04:44:28;;;;;;;0.80;0.80;;;3.00;99.90;;;;;;5052712;28;20029;-79
2021/04/23 04:46:54;;;;;;;1.80;0.93;;;2.90;99.90;;;;;;5052805;28;20025;-79
2021/04/23 04:49:19;;;;;;;7.00;1.10;;;2.90;99.90;;;;;;5049560;28;20029;-78
2021/04/23 04:51:45;;;;;;;2.47;1.27;;;3.00;99.90;;;;;;5034704;28;20055;-78
2021/04/23 04:54:11;;;;;;;3.58;1.50;;;3.10;99.90;;;;;;5031164;28;20033;-77
2021/04/23 04:56:37;;;;;;;21.80;3.43;;;3.30;99.90;;;;;;5034745;28;20028;-76
2021/04/23 04:59:03;;;;;;;3.57;1.27;;;3.30;99.90;;;;;;5050653;28;20047;-74
2021/04/23 05:01:29;;;;;;;1.27;1.00;;;3.30;99.90;;;;;;5054296;28;20083;-74
2021/04/23 05:03:55;;;;;;;4.38;1.17;;;3.30;99.90;;;;;;5052259;28;20033;-78
2021/04/23 05:06:21;;;;;;;4.50;1.70;;;3.30;99.90;;;;;;5055053;28;20435;-75
2021/04/23 05:08:47;;;;;;;3.13;0.90;;;3.30;99.90;;;;;;5046981;28;20052;-74
2021/04/23 05:11:12;;;;;;;1.70;0.80;;;3.40;99.90;;;;;;5050254;28;20422;-75
2021/04/23 05:13:38;;;;;;;2.27;1.67;;;3.40;99.90;;;;;;5052485;28;20045;-75
2021/04/23 05:16:04;;;;;;;5.73;1.77;;;3.50;99.90;;;;;;5052039;28;20028;-76
2021/04/23 05:18:30;;;;;;;2.30;1.10;;;3.60;99.90;;;;;;5052950;28;20358;-75
2021/04/23 05:20:57;;;;;;;2.80;1.23;;;3.70;99.90;;;;;;5032179;28;20066;-75
2021/04/23 05:23:22;;;;;;;3.28;1.35;;;3.70;99.90;;;;;;5032065;28;20040;-75
2021/04/23 05:25:48;;;;;;;2.50;1.53;;;3.70;99.90;;;;;;5032938;28;20155;-75
2021/04/23 05:28:14;;;;;;;4.07;1.60;;;3.70;99.90;;;;;;5051622;28;20025;-78
2021/04/23 05:30:40;;;;;;;1.30;0.82;;;3.70;99.90;;;;;;5052916;28;20024;-76
2021/04/23 05:33:10;;;;;;;0.85;0.73;;;3.80;99.90;;;;;;5032934;28;20048;-75
2021/04/23 05:35:38;;;;;;;2.58;1.02;;;3.80;99.90;;;;;;5034654;28;20047;-78
2021/04/23 05:38:04;;;;;;;3.42;1.08;;;3.80;99.90;;;;;;5051771;28;20036;-78
2021/04/23 05:40:44;;;;;;;1.27;0.70;;;3.90;99.90;;;;;;5033510;28;20049;-80
2021/04/23 05:43:10;;;;;;;4.32;1.25;;;3.90;99.90;;;;;;5051809;28;20064;-76
2021/04/23 05:45:37;;;;;;;2.65;1.00;;;4.20;99.90;;;;;;5033982;28;20040;-79
2021/04/23 05:48:03;;;;;;;1.55;1.23;;;4.40;99.90;;;;;;5052805;28;20082;-74
2021/04/23 05:50:29;;;;;;;1.05;0.60;;;4.50;99.90;;;;;;5033904;28;20032;-76
2021/04/23 05:52:55;;;;;;;0.67;0.47;;;4.70;99.90;;;;;;5034689;28;20048;-75
2021/04/23 05:55:26;;;;;;;2.27;1.30;;;5.00;99.90;;;;;;5051174;28;20075;-77
2021/04/23 05:57:54;;;;;;;3.78;1.13;;;5.20;99.90;;;;;;5032718;28;20429;-74
2021/04/23 06:00:20;;;;;;;2.65;0.50;;;5.20;99.90;;;;;;5035035;28;20037;-77
2021/04/23 06:02:47;;;;;;;3.22;0.40;;;5.20;99.90;;;;;;5053151;28;20146;-76
2021/04/23 06:05:14;;;;;;;3.00;1.25;;;5.20;99.90;;;;;;5050865;28;20102;-78
2021/04/23 06:07:40;;;;;;;;;;;5.30;99.90;;;;;;5052137;28;20106;-75
2021/04/23 06:10:08;;;;;;;0.30;0.30;;;5.50;99.90;;;;;;5050710;28;19931;-78
2021/04/23 06:12:34;;;;;;;0.80;0.50;;;5.60;99.90;;;;;;5034532;28;20290;-77
2021/04/23 06:15:00;;;;;;;4.53;0.82;;;5.60;99.90;;;;;;5051483;28;20509;-75
2021/04/23 06:17:26;;;;;;;0.23;0.23;;;5.70;99.90;;;;;;5051154;28;20037;-78
2021/04/23 06:19:52;;;;;;;0.57;0.33;;;5.70;99.90;;;;;;5035399;28;20116;-74
2021/04/23 06:22:18;;;;;;;0.60;0.60;;;5.80;99.90;;;;;;5034166;28;20120;-79
2021/04/23 06:24:44;;;;;;;2.92;1.33;;;5.90;99.90;;;;;;5049962;28;20032;-77
2021/04/23 06:27:10;;;;;;;4.80;1.33;;;5.90;99.90;;;;;;5032657;28;20055;-78
2021/04/23 06:29:36;;;;;;;4.67;1.27;;;6.00;99.90;;;;;;5052918;28;20053;-79
2021/04/23 06:32:01;;;;;;;1.20;1.10;;;6.00;99.90;;;;;;5050782;28;20025;-77
2021/04/23 06:34:27;;;;;;;1.33;0.73;;;6.10;99.90;;;;;;5035594;28;20454;-79
2021/04/23 06:36:54;;;;;;;1.73;0.90;;;6.30;99.90;;;;;;5050032;28;20033;-79
2021/04/23 06:39:19;;;;;;;0.85;0.60;;;6.40;99.90;;;;;;5032579;28;20127;-75
2021/04/23 06:41:46;;;;;;;3.22;0.73;;;6.50;99.90;;;;;;5033767;28;20115;-80
2021/04/23 06:44:12;;;;;;;3.55;1.55;;;6.60;99.90;;;;;;5052561;28;20024;-78
2021/04/23 06:46:38;;;;;;;2.33;0.82;;;6.70;99.90;;;;;;5050413;28;20289;-79
2021/04/23 06:49:05;;;;;;;0.70;0.70;;;6.80;99.90;;;;;;5034470;28;20025;-78
2021/04/23 06:51:31;;;;;;;4.00;0.82;;;6.90;99.90;;;;;;5051639;28;20024;-77
2021/04/23 06:53:57;;;;;;;4.63;1.07;;;6.90;99.90;;;;;;5050311;28;20036;-81
2021/04/23 06:56:23;;;;;;;4.80;0.80;;;7.10;99.90;;;;;;5038428;28;20025;-78
2021/04/23 06:58:48;;;;;;;1.38;0.80;;;7.10;99.90;;;;;;5047810;28;20037;-79
2021/04/23 07:01:16;;;;;;;2.00;1.07;;;7.10;99.90;;;;;;5033791;28;20055;-78
2021/04/23 07:03:43;;;;;;;3.88;1.27;;;7.20;99.90;;;;;;5033141;28;20336;-79
2021/04/23 07:06:09;;;;;;;1.25;0.98;;;7.30;99.90;;;;;;5052728;28;20614;-80
2021/04/23 07:08:36;;;;;;;1.50;0.65;;;7.40;99.90;;;;;;5051200;28;20084;-79
2021/04/23 07:11:02;;;;;;;2.58;0.70;;;7.50;99.90;;;;;;5031501;28;20160;-80
2021/04/23 07:13:28;;;;;;;3.53;0.88;;;7.30;99.90;;;;;;5052837;28;20094;-79
2021/04/23 07:15:53;;;;;;;2.17;1.23;;;7.20;99.90;;;;;;5033290;28;20487;-78
2021/04/23 07:18:19;;;;;;;4.68;0.82;;;7.40;99.90;;;;;;5036291;28;20055;-80
2021/04/23 07:20:45;;;;;;;3.27;0.77;;;7.70;99.90;;;;;;5053724;28;20029;-79
2021/04/23 07:23:11;;;;;;;5.00;1.70;;;7.60;99.90;;;;;;5054367;28;20443;-79
2021/04/23 07:25:38;;;;;;;1.73;0.73;;;7.50;99.90;;;;;;5052299;28;20025;-79
2021/04/23 07:28:04;;;;;;;0.90;0.77;;;7.60;99.90;;;;;;5036094;28;20374;-79
2021/04/23 07:30:31;;;;;;;1.30;0.82;;;7.90;99.90;;;;;;5054526;28;20079;-76
2021/04/23 07:32:59;;;;;;;9.20;0.88;;;8.00;99.90;;;;;;5036011;28;20044;-80
2021/04/23 07:35:26;;;;;;;1.75;0.63;;;8.10;99.90;;;;;;5050000;28;20116;-79
2021/04/23 07:37:52;;;;;;;3.53;0.80;;;8.10;99.90;;;;;;5033005;28;20033;-78
2021/04/23 07:40:19;;;;;;;9.18;1.13;;;8.10;99.90;;;;;;5050957;28;20426;-79
2021/04/23 07:42:46;;;;;;;0.40;0.30;;;8.40;99.90;;;;;;5055412;28;20090;-79
2021/04/23 07:45:13;;;;;;;1.00;0.85;;;8.60;99.90;;;;;;5056374;28;20052;-79
2021/04/23 07:47:39;;;;;;;5.80;0.60;;;8.60;99.90;;;;;;5053815;28;20091;-78
2021/04/23 07:50:08;;;;;;;2.77;1.10;;;8.40;99.90;;;;;;5036842;28;20021;-80
2021/04/23 07:52:36;;;;;;;4.25;1.55;;;8.20;99.90;;;;;;5053576;28;20072;-80
2021/04/23 07:55:04;;;;;;;5.35;1.13;;;8.20;99.90;;;;;;5035817;28;20039;-78
2021/04/23 07:57:31;;;;;;;0.90;0.57;;;8.30;99.90;;;;;;5036936;28;20029;-79
2021/04/23 07:59:57;;;;;;;2.10;0.80;;;8.10;99.90;;;;;;5035358;28;20029;-79
2021/04/23 08:02:23;;;;;;;5.72;1.48;;;8.00;99.90;;;;;;5036003;28;20032;-81
2021/04/23 08:04:48;;;;;;;5.53;0.93;;;8.40;99.90;;;;;;5052986;28;20029;-79
2021/04/23 08:07:14;;;;;;;6.80;1.38;;;8.60;99.90;;;;;;5052572;28;20415;-81
2021/04/23 08:09:40;;;;;;;3.13;1.13;;;8.80;99.90;;;;;;5055358;28;20025;-77
2021/04/23 08:12:09;;;;;;;9.57;2.17;;;9.10;99.90;;;;;;5055569;28;20029;-81
2021/04/23 08:14:36;;;;;;;3.97;1.58;;;9.20;99.90;;;;;;5044407;28;20033;-79
2021/04/23 08:17:01;;;;;;;6.90;1.25;;;9.00;99.90;;;;;;5032595;28;20036;-78
2021/04/23 08:19:27;;;;;;;3.00;0.70;;;8.50;99.90;;;;;;5035620;28;20033;-77
2021/04/23 08:21:53;;;;;;;1.42;1.02;;;8.20;99.90;;;;;;5037826;28;20023;-79
2021/04/23 08:24:19;;;;;;;6.17;0.77;;;8.10;99.90;;;;;;5052726;28;20048;-78
2021/04/23 08:26:45;;;;;;;2.40;0.60;;;8.00;99.90;;;;;;5048188;28;20017;-80
2021/04/23 08:29:11;;;;;;;9.27;1.25;;;7.90;99.90;;;;;;5054228;28;20029;-81
2021/04/23 08:31:42;;;;;;;2.40;0.80;;;8.20;99.90;;;;;;5036595;28;20025;-82
2021/04/23 08:34:08;;;;;;;4.30;0.77;;;8.60;99.90;;;;;;5032504;28;20324;-79
2021/04/23 08:36:34;;;;;;;6.20;2.00;;;8.90;99.90;;;;;;5034536;28;20159;-77
2021/04/23 08:38:59;;;;;;;0.47;0.47;;;9.20;99.90;;;;;;5052258;28;20123;-79
2021/04/23 08:41:26;;;;;;;3.15;0.88;;;9.30;99.90;;;;;;5053454;28;20029;-79
2021/04/23 08:43:52;;;;;;;4.03;0.65;;;9.30;99.90;;;;;;5053981;28;20029;-80
2021/04/23 08:46:18;;;;;;;1.60;0.97;;;9.10;99.90;;;;;;5054067;28;20082;-79
2021/04/23 08:48:44;;;;;;;0.93;0.90;;;9.10;99.90;;;;;;5051388;28;20274;-79
2021/04/23 08:51:11;;;;;;;1.35;0.73;;;9.20;99.90;;;;;;5037699;28;20037;-73
2021/04/23 08:53:37;;;;;;;2.90;1.55;;;9.30;99.90;;;;;;5051360;28;20321;-77
2021/04/23 08:56:03;;;;;;;4.53;1.52;;;9.30;99.90;;;;;;5035991;28;20031;-79
2021/04/23 08:58:29;;;;;;;4.23;1.67;;;9.30;99.90;;;;;;5053493;28;20112;-75
2021/04/23 09:00:55;;;;;;;5.43;1.40;;;9.50;99.90;;;;;;5053675;28;20353;-79
2021/04/23 09:03:24;;;;;;;1.33;0.75;;;9.90;99.90;;;;;;5054203;28;20025;-81
2021/04/23 09:06:21;;;;;;;5.82;1.40;;;9.80;99.90;;;;;;5051879;28;20127;-77
2021/04/23 09:08:52;;;;;;;1.58;0.98;;;9.80;99.90;;;;;;5052676;28;20028;-80
2021/04/23 09:11:20;;;;;;;3.60;1.08;;;9.40;99.90;;;;;;5049939;28;20025;-80
2021/04/23 09:13:55;;;;;;;5.68;1.67;;;9.30;99.90;;;;;;5036464;28;20021;-79
2021/04/23 09:16:23;;;;;;;3.42;1.38;;;9.30;99.90;;;;;;5035539;28;20055;-81
2021/04/23 09:18:49;;;;;;;2.10;1.00;;;9.40;99.90;;;;;;5050870;28;20028;-74
2021/04/23 09:21:15;;;;;;;7.57;1.10;;;9.70;99.90;;;;;;5051108;28;20035;-82
2021/04/23 09:23:52;;;;;;;2.63;1.40;;;9.90;99.90;;;;;;5036624;28;20628;-77
2021/04/23 09:26:37;;;;;;;8.50;1.50;;;10.00;99.90;;;;;;5052289;28;20036;-73
2021/04/23 09:29:04;;;;;;;1.10;0.70;;;10.00;99.90;;;;;;5051433;28;20033;-75
2021/04/23 09:31:32;;;;;;;3.88;1.50;;;9.90;99.90;;;;;;5051368;28;20028;-78
2021/04/23 09:34:04;;;;;;;4.78;1.17;;;9.80;99.90;;;;;;5052745;28;20029;-81
2021/04/23 09:36:33;;;;;;;3.08;1.65;;;9.70;99.90;;;;;;5035999;28;20036;-81
2021/04/23 09:39:20;;;;;;;5.35;1.90;;;9.80;99.90;;;;;;5049151;28;20055;-72
2021/04/23 09:42:00;;;;;;;2.15;0.80;;;9.80;99.90;;;;;;5049076;28;20082;-74
2021/04/23 09:44:34;;;;;;;6.50;1.10;;;9.90;99.90;;;;;;5048030;28;20416;-78
2021/04/23 09:47:11;;;;;;;2.40;1.35;;;9.70;99.90;;;;;;5032906;28;20033;-78
2021/04/23 09:49:38;;;;;;;1.38;0.88;;;9.50;99.90;;;;;;5036187;28;20025;-82
2021/04/23 09:52:06;;;;;;;4.45;1.42;;;9.60;99.90;;;;;;5053156;28;20052;-81
2021/04/23 09:54:34;;;;;;;2.90;1.05;;;9.80;99.90;;;;;;5033481;28;20033;-81
2021/04/23 09:57:00;;;;;;;11.85;1.02;;;9.90;99.90;;;;;;5033318;28;20030;-78
2021/04/23 09:59:30;;;;;;;4.85;1.27;;;9.60;99.90;;;;;;5035941;28;20492;-75
2021/04/23 10:02:01;;;;;;;3.50;1.52;;;9.80;99.90;;;;;;5052374;28;20028;-77
2021/04/23 10:04:33;;;;;;;6.55;1.75;;;10.20;99.90;;;;;;5034223;28;20436;-74
2021/04/23 10:07:27;;;;;;;1.23;0.73;;;10.40;99.90;;;;;;5046762;28;20025;-79
2021/04/23 10:09:56;;;;;;;2.97;1.33;;;10.30;99.90;;;;;;5045363;28;20041;-80
2021/04/23 10:12:50;;;;;;;3.85;1.20;;;10.10;99.90;;;;;;5032235;28;20021;-81
2021/04/23 10:15:26;;;;;;;9.48;2.50;;;10.20;99.90;;;;;;5035401;28;21152;-80
2021/04/23 10:17:54;;;;;;;3.72;1.48;;;10.30;99.90;;;;;;5051168;28;20051;-80
2021/04/23 10:20:24;;;;;;;1.90;0.77;;;10.40;99.90;;;;;;5050710;28;20327;-76
2021/04/23 10:22:50;;;;;;;11.65;1.52;;;10.30;99.90;;;;;;5032524;28;20442;-78
2021/04/23 10:25:17;;;;;;;2.30;1.00;;;10.80;99.90;;;;;;5034641;28;20099;-75
2021/04/23 10:27:44;;;;;;;5.65;1.63;;;11.30;99.90;;;;;;5050321;28;20368;-77
2021/04/23 10:30:19;;;;;;;6.45;1.27;;;11.30;99.90;;;;;;5049713;28;20033;-73
2021/04/23 10:32:49;;;;;;;1.13;0.77;;;11.10;99.90;;;;;;5050868;28;20025;-71
2021/04/23 10:35:16;;;;;;;5.00;1.55;;;11.10;99.90;;;;;;5035904;28;20100;-80
2021/04/23 10:37:43;;;;;;;3.30;1.10;;;10.70;99.90;;;;;;5026800;28;20025;-74
2021/04/23 10:40:11;;;;;;;10.07;2.17;;;10.80;99.90;;;;;;5039445;28;20045;-80
2021/04/23 10:42:41;;;;;;;7.68;1.83;;;10.80;99.90;;;;;;5047274;28;20048;-74
2021/04/23 10:45:22;;;;;;;3.00;1.42;;;10.80;99.90;;;;;;5029905;28;20025;-74
2021/04/23 10:47:50;;;;;;;8.63;1.75;;;11.00;99.90;;;;;;5032142;28;20470;-79
2021/04/23 10:50:22;;;;;;;4.80;1.48;;;10.90;99.90;;;;;;5051136;28;20038;-79
2021/04/23 10:53:15;;;;;;;1.77;0.50;;;10.90;99.90;;;;;;5050498;28;20107;-73
2021/04/23 10:55:47;;;;;;;3.83;1.30;;;10.90;99.90;;;;;;5051869;28;20032;-79
2021/04/23 10:58:15;;;;;;;3.70;1.73;;;10.90;99.90;;;;;;5051574;28;20370;-77
2021/04/23 11:00:47;;;;;;;2.72;1.40;;;11.10;99.90;;;;;;5033362;28;20436;-78
2021/04/23 11:03:28;;;;;;;1.85;1.15;;;11.00;99.90;;;;;;5036203;28;20036;-74
2021/04/23 11:05:56;;;;;;;1.98;1.27;;;11.10;99.90;;;;;;5044107;28;20032;-75
2021/04/23 11:08:24;;;;;;;7.05;1.98;;;11.00;99.90;;;;;;5031272;28;20301;-73
2021/04/23 11:11:02;;;;;;;5.10;1.60;;;11.10;99.90;;;;;;5034198;28;20112;-73
2021/04/23 11:13:29;;;;;;;10.20;2.10;;;11.10;99.90;;;;;;5051156;28;20022;-82
2021/04/23 11:16:20;;;;;;;9.32;1.60;;;11.10;99.90;;;;;;5049796;28;20046;-75
2021/04/23 11:19:11;;;;;;;2.17;1.13;;;11.10;99.90;;;;;;5050371;28;20053;-80
2021/04/23 11:21:38;;;;;;;3.03;1.13;;;11.00;99.90;;;;;;5050987;28;20032;-77
2021/04/23 11:24:19;;;;;;;1.30;0.85;;;11.00;99.90;;;;;;5033449;28;20416;-75
2021/04/23 11:29:54;;;;;;;2.22;1.40;;;11.40;99.90;;;;;;4959550;28;20311;-75
2021/04/23 11:32:22;;;;;;;11.32;1.90;;;11.20;99.90;;;;;;4962855;28;20434;-78
2021/04/23 11:34:48;;;;;;;3.00;1.90;;;11.10;99.90;;;;;;4962518;28;20036;-75
2021/04/23 11:37:21;;;;;;;3.67;1.33;;;11.40;99.90;;;;;;4961794;28;20044;-72
2021/04/23 11:39:51;;;;;;;11.63;2.53;;;11.40;99.90;;;;;;4961247;28;20061;-73
2021/04/23 11:42:24;;;;;;;2.90;1.80;;;11.30;99.90;;;;;;4959998;28;20034;-73
2021/04/23 11:45:02;;;;;;;3.17;1.52;;;11.30;99.90;;;;;;4974030;28;20055;-78
2021/04/23 11:47:34;;;;;;;5.22;1.40;;;11.50;99.90;;;;;;4960859;28;20035;-79
2021/04/23 11:50:03;;;;;;;3.60;1.60;;;11.20;99.90;;;;;;4965925;28;20146;-76
2021/04/23 11:52:30;;;;;;;2.22;1.20;;;11.20;99.90;;;;;;4951858;28;20434;-75
2021/04/23 11:54:57;;;;;;;4.43;1.95;;;11.40;99.90;;;;;;4953677;28;20039;-74
2021/04/23 11:57:28;;;;;;;2.80;1.92;;;11.50;99.90;;;;;;4969213;28;20031;-75
2021/04/23 12:00:12;;;;;;;1.92;1.13;;;11.50;99.90;;;;;;4952799;28;20047;-73
2021/04/23 12:02:41;;;;;;;3.33;1.65;;;11.40;99.90;;;;;;4952652;28;20071;-74
2021/04/23 12:05:19;;;;;;;6.15;1.77;;;11.40;99.90;;;;;;4950174;28;20035;-73
2021/04/23 12:07:46;;;;;;;5.15;1.77;;;11.50;99.90;;;;;;5025820;28;20309;-73
2021/04/23 12:10:12;;;;;;;7.70;1.20;;;11.30;99.90;;;;;;5035458;28;20510;-73
2021/04/23 12:12:38;;;;;;;4.80;1.35;;;11.50;99.90;;;;;;5021568;28;20320;-72
2021/04/23 12:15:06;;;;;;;2.37;1.77;;;11.50;99.90;;;;;;5027431;28;20030;-73
2021/04/23 12:17:41;;;;;;;4.53;1.27;;;11.50;99.90;;;;;;5032623;28;20657;-76
2021/04/23 12:20:16;;;;;;;6.65;2.42;;;11.30;99.90;;;;;;5031921;28;20034;-73
2021/04/23 12:22:42;;;;;;;12.05;1.77;;;11.30;99.90;;;;;;5026446;28;20453;-72
2021/04/23 12:25:22;;;;;;;7.60;1.90;;;11.40;99.90;;;;;;5032786;28;20101;-72
2021/04/23 12:27:48;;;;;;;4.80;1.05;;;11.50;99.90;;;;;;5028596;28;20029;-73
2021/04/23 12:30:28;;;;;;;3.63;1.45;;;11.50;99.90;;;;;;5033850;28;20421;-73
2021/04/23 12:32:55;;;;;;;2.60;1.65;;;11.70;99.90;;;;;;5031491;28;20460;-75
2021/04/23 12:35:40;;;;;;;5.40;1.55;;;11.60;99.90;;;;;;5030608;28;20022;-74
2021/04/23 12:38:08;;;;;;;4.95;1.15;;;11.80;99.90;;;;;;5031119;28;20154;-78
2021/04/23 12:40:37;;;;;;;20.00;2.47;;;11.80;99.90;;;;;;5046581;28;20132;-73
2021/04/23 12:43:16;;;;;;;3.25;2.08;;;11.90;99.90;;;;;;5052604;28;20056;-72
2021/04/23 12:45:54;;;;;;;2.05;0.70;;;11.90;99.90;;;;;;5033795;28;20441;-74
2021/04/23 12:48:22;;;;;;;6.25;1.30;;;11.90;99.90;;;;;;5032092;28;20038;-72
2021/04/23 12:50:50;;;;;;;5.55;1.65;;;11.80;99.90;;;;;;5053829;28;20365;-78
2021/04/23 12:53:19;;;;;;;2.78;1.45;;;11.90;99.90;;;;;;5042240;28;20053;-73
2021/04/23 12:55:46;;;;;;;1.63;1.13;;;11.80;99.90;;;;;;5049771;28;20017;-71
2021/04/23 12:58:13;;;;;;;3.38;1.40;;;11.70;99.90;;;;;;5034142;28;20039;-73
2021/04/23 13:00:41;;;;;;;2.65;1.48;;;11.70;99.90;;;;;;5051257;28;20393;-72
2021/04/23 13:03:08;;;;;;;3.75;0.90;;;11.70;99.90;;;;;;5054821;28;20120;-75
2021/04/23 13:05:34;;;;;;;2.88;1.48;;;11.80;99.90;;;;;;5052045;28;20036;-72